« 2009年8月 | トップページ | 2009年10月 »

2009年9月

2009年9月26日 (土)

2009年秋の別海合宿5日目~最終日

RJCN 260000Z VRB02KT 9999 FEW030 17/12 Q1012
RJCN 260300Z 35014KT 320V020 9999 FEW045 19/07 Q1012
RJCN 260600Z 33009KT 290V010 9999 FEW045 17/07 Q1013
RJCN 260900Z 35012G23KT 9999 FEW035 SCT050 14/07 Q1016
RJCK 261100Z 35004KT 290V020 CAVOK 12/08 Q1018
RJTT 261300Z 06008KT CAVOK 22/17 Q1018 RMK A3007

Img_0014s
愛機TB200でIFRの訓練に出発する小六オーナー、後席にはJMGCのA曽さんが同乗しています。

楽しかった別海合宿も今日で最終日です。しかし、今日は佐藤場長が北見で開催される安全講習会
に出席するので我々のフライトありませんので道東観光をして、最終の釧路便で帰る事にしました。
A曽さんは1人残って小六さんのIFR訓練に同乗させて頂きました。
小六オーナー、佐藤場長、鳥になりたい会の皆様、今回も大変お世話
になりました。本当にありがとうございました。また来ます~♪

続きを読む "2009年秋の別海合宿5日目~最終日"

|

2009年9月25日 (金)

2009年秋の別海合宿4日目

RJCN 250000Z VRB02KT 9999 FEW035 20/15 Q1016
RJCN 250300Z 07009KT 9999 FEW035 21/13 Q1015
RJCN 250600Z 05007KT 9999 FEW040 21/13 Q1015
RJCN 250900Z 04005KT 360V070 9999 -SHRA FEW015 BKN017 BKN040 16/13 Q1016

RJEC 250200Z 34003KT 280V070 9999 SCT025 19/14 Q1017
RJEC 250300Z VRB03KT 9999 SCT035 21/12 Q1016

RJCB 250300Z VRB02KT 9999 FEW030 22/11 Q1015
RJCB 250400Z VRB03KT 9999 FEW030 23/11 Q1015

明日は佐藤場長が安全講習会で北見に行くので実質的に今日が最後のフライトとなります。JA3796は朝一番で別海を離陸して青森ワンストップで大利根を目指す事になります。本来は私もJA3796で帰路に着く予定でしたが、諸般の理由によりもう一泊する事にしてJA3796はO方さんとK本さんが大利根まで飛ばす事になります。

Photo_5
バスマンの別海フライトパークでの初フライトは贅沢にも大雪山経由で帯広空港に着陸して別海フライトパークに戻るコースとなりましたcat

続きを読む "2009年秋の別海合宿4日目"

|

2009年9月24日 (木)

2009年秋の別海合宿3日目

RJCN 240000Z 22003KT 170V260 5000 -DZ BR FEW002 SCT004 BKN005 16/15 Q1021
RJCN 240100Z 24004KT 4500 BR SCT002 BKN003 BKN004 16/16 Q1021
RJCN 240200Z 25005KT 200V290 9999 FEW004 SCT006 BKN011 19/17 Q1020
RJCN 240600Z 20011KT 9999 FEW020 BKN030 BKN080 21/16 Q1018
RJCN 240900Z 19005KT 9999 BKN015 BKN030 18/16 Q1018

起床してホテルの窓を開けたら部屋の中にまで霧が入り込んで来た・・・・・予報どおり今日は天気が悪そうですweep

---------------------------------------------------------------------------------------------------------

Img_0088s
bottlebottlebottlebottlebottle別海フライトパークの管理塔2階で宴会が行われましたbeerbeerbeerbeerbeer

左から
計器飛行証明の横山教官
JMGC A曽さん
JMGC O方さん
JMGC けいぶん
別海FPのオーナーである、作曲家の小六禮次郎さん
別海FPの飛行場長の佐藤さん
JMGC バスマンさん・・・・10/1付けで地下鉄マンになります。略して「もぐら男」
別海FP シゲさん
JMGC つのやん
撮影者はJMGC K本さん

天気予報が悪い割には飛べた一日でした。JA3796は明日、帰路に着くので今夜は
盛大に宴会をする事になったのだが、今夜の我々の宿は弟子屈町のペンションです。
ここから弟子屈までは車で30分くらいなので、一旦ペンションに戻って夕飯を
食べてから、ここに戻って宴会をしようって事になりました。幸いな事にお酒を
飲まない人が2名いるので都合が良い・・・・かな?なんて思ったのですが、
某バスマン氏から乗継ぎ計画ミスで到着が遅れると言う連絡があり、待っていると
宴会に遅れるので、空路で釧路空港まで行こうとしたが釧路到着後にIMCになると
戻れなくなると困るなぁ~!
そこで、A曽さんにレンタカーで釧路空港まで向えに行ってもらいました。

ありがとうございました>A曽さん

続きを読む "2009年秋の別海合宿3日目"

|

2009年9月23日 (水)

2009年秋の別海合宿2日目

RJCN 230000Z VRB02KT 9999 FEW040 19/14 Q1021
RJCN 230300Z 15003KT 090V230 9999 FEW040 21/11 Q1021
RJCN 230600Z 10007KT 9999 FEW040 21/13 Q1021
RJCN 230900Z 02003KT 9999 FEW015 BKN018 14/13 Q1021

RJCM 230100Z 28003KT 210V330 9999 SCT040 20/12 Q1022

RJEC 230500Z VRB04KT 9999 FEW040 22/11 Q1020

別海合宿2日目の天気予報は良さそうです。さっそく別海FPに顔を出します。JA3796を女満別まで取りに行かなければなりませんが、陸路で行くと効率が悪いので2人でグローブで女満別まで行くことにしました。残った人たちはグローブが帰ってくるまでULPで楽しんでもらいましょう~♪(今回のメンバーは事前にULPの(乗員(法第28条))を申請をしておきました)

001
別海FPを離陸して女満別空港を目指します。

Img_0002s
JA3796のO方さんはモグラのライセンシーでもあります。

002
エンルートは摩周湖~屈斜路湖と観光地が続きます(笑)

女満別空港までは僅か35分。陸路だと1時間30分は掛かります。さっそく空港管理事務所で手続きをして別海FPに帰りましょう~

004rwy36
女満別空港RWY36 到着機を待ちます。

005
女満別空港を離陸~JA3796がタキシングしています~

006
摩周ブルーぅ

Img_0037s
別海FPに戻ったら、なんとソルジャー小林が遊びに来ていました。彼の実家は別海FPのお隣なんですね!。でも、別海FPで彼とお会いするのは初めてでした(笑)

Photo
別海FP~女満別空港~別海FPの航跡

続きを読む "2009年秋の別海合宿2日目"

|

2009年9月22日 (火)

2009年秋の別海合宿1日目

RJAA 220000Z 18007KT 160V230 9999 FEW025 BKN050 BKN/// 23/16 Q1020 NOSIG
RJSA 220300Z 20011KT 170V240 9999 FEW030 SCT070 22/15 Q1017
RJCC 220400Z 16016KT 9999 FEW015 SCT020 BKN050 20/15 Q1017
RJCB 220600Z 34004KT 290V040 9999 FEW006 BKN009 BKN012 13/11 Q1019
RJCK 220700Z VRB01KT 2500 R17/0650VP1800D PRFG -SHRA BR FEW001 BKN005 15/14 Q1019
RJCN 220708Z 03003KT 2300 -SHRA BR FEW002 SCT004 BKN005 13/13 Q1020 RMK 1ST002 3ST004 7ST005 A3012
RJCM 220800Z 18008KT 9999 FEW010 SCT120 15/12 Q1017

今週はシルバーウィークと言う事でJMGCのメンバーと別海フライトパークで飛ばさせて頂きました。今回はR172K/JA3796のO方もご参加して下さると言う事でJA3796に同乗させて頂きました。しかし、今日のエンルートの天気予報は悪く、しかも目的地の別海方面は降雨の予報も・・・・どうなるのやら・・・・・しかしながら、我らの機長様は計器飛行証明をお持ちなので、イザとなったらIFRに切り替えて飛行可能です。

Ja3796
往路の航跡です。こうやって見ると遠いですね~!




続きを読む "2009年秋の別海合宿1日目"

|

2009年9月21日 (月)

タンデムファルケな日

最近、タンデムファルケに乗っていないので、久しぶりに乗ってみました。やはり、とっても良いです、この機体~♪

Img_0001s_2
シンプルなコックピット

Img_0006s_2
後席は、単車輪ファルケを所有しているのにタンデムファルケに乗った事が無いと言う、最近「呟いている」某弁護士・・・・

Img_0007s
30分くらいアエワークやTGLをしてから、前後を交代してA尾さんが前席です~

Img_0008s_2
A尾さん、緊張しています(笑)

Img_0014s
利根川と国道356号線。行楽帰りの車で混んでいますね!

Img_0016s
30分くらいTGLをして今日はおしまい!

Img_0017s
放課後は嵐を呼ぶクラブ員・・・ガスター改typhoonと夕飯を・・・・restaurant






|

2009年9月20日 (日)

新米と秋刀魚と

今年もやってきました収穫の秋~♪

Img_0003s_2
今年も「北の尊師」から秋刀魚が送られてきました。ありがとうございます。

Img_0006s
50本以上の秋刀魚があっと言う間になくなりました。

Img_0008s
新鮮秋刀魚の塩焼きにはDAICONおろしとSUDACHI♪

Img_0009s
拙宅のコシヒカリも提供させて頂きました。一升を2回炊きましたが・・・・売り切れ!

Img_0002s
都内飛行場からは某エアラインのキャプテンがセスナで新米を買いに来てくれました。これぞ、正しい軽飛行機の使い方ですね!scissors

Img_0018s
もちろん、飛びましたよ!(笑)

Img_0025s
S中教官が乗ってきた自転車に乗ろうとするソルジャー・・・・脚が届かない!(笑)

Img_0029s
MRTさんが新撰組の技量維持をしていました。

Img_0031s
日没2分前まで訓練は続きます!








続きを読む "新米と秋刀魚と"

|

2009年9月19日 (土)

シルバーウィーク初日♪

今日からシルバーウィーク突入です~!
大利根に行くとさっそくGNS430Wが装備されたスーパーディモナの慣らし運転?を仰せつかりました(笑)



Img_0001s

グラスコックピットなスーパーディモナ

Img_0003s
ガーミンのGNS430が付いてます!凄いですねぇ!

Img_0013s
戦い終わって日が暮れて~!今日も1日安全に航空廃人業務が終わりました!



|

2009年9月13日 (日)

本日は天気良好!

早朝は霧でIMCだたけど、太陽が高くなるにつれ霧が晴れて快晴になりました。皆の楽しそうな無線を聞きながら事務所でサーバーのデーター移行作業を続けます・・・・が思いのほか作業が順調に終わったので飛行場に出撃すると駐車場はクラブ員の車で一杯でした。

大阪猫のタブパパは3ヶ月ぶりのG109Bだと言うので右席の同乗させてもらいましたが、全然問題ないのでTGL2回でフルストップして、moguji~に誘われて松本空港に出かけていきました・・・・羨ましいなぁ~

お昼ごはんを食べながら、皆さんと談笑していましたが、A曽さんが新撰組で飛ぶと言うのでこれまた同乗させて頂き、更に新婚のF坂さんが新撰組への機種転換を訓練を行うと言うので更にこれにも同乗させて頂きました。F坂さんはその後、独りで飛んで頂き、新撰組派がまた増えました(笑)

日が傾く頃、パラジャンが終わったので、カッキー教官と交代で新撰組で軽~くエアワークを行って今日のフライトは終了~です!

Dscf0182s
新撰組で初PICのF坂さん

Photo
エアワーク中の操縦席

Dscf0189s
夕暮れ時の新撰組

Photo_2
夕暮れ時のクラブハウスと教官達・・・戦い終わって日が暮れて♪

JA2429/G109B     右席 0+15
JA21HE/IS28M2GR  右席 1+00
JA21HE/IS28M2GR  右席 0+40
JA21HE/IS28M2GR  PIC  0+25
JA21HE/IS28M2GR  左席 0+15

今日も1日、安全に飛行出来ました♪~ 

続きを読む "本日は天気良好!"

|

2009年9月12日 (土)

土曜日は雨・・・・

JMGCのDATAサーバーが調子悪いので新型サーバーと交換作業を行いました。新型は安定して動いているようで一安心です。
いっぽう、大阪猫が禁断症状に負けて遊びにきましたが、彼が来ると何故か雨になります??

Dscf0169s
工場で整備中のスーパーディモナ。GNS430取り付け作業中です。

Dscf0178s
まじめ?に仕事中の某原社員(笑)

Dscf0170s
自分の愛機を整備する某弁護士・・・・IT弁護士を自称しているが「呟けない」!

Dscf0179s
大阪猫の歓迎会は龍ヶ崎市内の某「七輪」で行われました!



|

2009年9月10日 (木)

新撰組で銚子~屏風ヶ浦~そして、定番の成田国際空港♪

今日は平日なのに、クラブハウスに顔を出すと、「普通のサラリーマン」が沢山いました(笑)。そこで、天気も良いのでモグラの訓練を終えたM田さんをお誘いして新撰組で定番コースを飛んできました(笑)

Photo
いつものコース!大利根~成田空港のPCAの下~佐原駅~銚子港~犬吠崎~屏風ヶ浦~飯岡漁港~山田航空路監視レーダー~成田国際空港~佐倉VOR~大利根

Dscf0160s
新撰組初体験のM田さん

Dscf0162s
利根川の下流域と鹿島灘

Dscf0167s
成田空港A滑走路





続きを読む "新撰組で銚子~屏風ヶ浦~そして、定番の成田国際空港♪"

|

2009年9月 6日 (日)

正しい自家用パイロットとランチは能登で!

今日はヘリコプター搭載型護衛艦「ひゅうが」が横浜港の大桟橋で一般公開すると言うので空撮しようと飛行場に出かけたら、瀬尾師匠のJA09AWが既に離陸していた。プランを見ると、YOKOHAMAとなっているのでおそらく「ひゅうが」狙いでしょうね?(笑)
A曽さんが飛行場に来るとのメールがあったので、それではA曽さんとYOKOHAMAに行こうと思っていたら、アローターボのオーナー、W林さんが「能登に行こう!」と誘ってくれたので、当初の計画はあっさりと破棄して早速、能登行きの準備をします。(爆)

Photo_2
大利根~能登空港の航跡。ほぼ、まっすぐですね!

Dscf0139s
大利根飛行場RWY07で離陸します~♪


続きを読む "正しい自家用パイロットとランチは能登で!"

|

2009年9月 5日 (土)

某飛行場とスポット予約と目的・・・・

当ブログは自家用機パイロットの日常を楽しく可笑しく紹介するものです。
著者に無断で複製、配布、転載する事は固くお断りいたします。(会議の資料としての配布もお断り致します)


ちょっと用事があったので、某飛行場まで行ってきました。機長は某が初めてだと言うMRT機長です。某飛行場はご存知のとおり、制約の色々とありますが、今回も少し勉強させて頂きました。

20090905
往路は下総基地の管制圏を通過して直行コース。復路はMRT機長宅を上空から尋ねて帰りました。

Photo
MRT機長の操縦でRJTFへ・・・

Dscf0123s
都内上空。いつ見ても無秩序大都会・・・好きです!

Dscf0124s
RJTFのRWY35ファイナル

Dscf0125s
まもなく着陸~♪






続きを読む "某飛行場とスポット予約と目的・・・・"

|

2009年9月 2日 (水)

3Dカメラ


http://www.gizmodo.jp/2009/08/3dfinepix_real_3d_w1.html

|

« 2009年8月 | トップページ | 2009年10月 »